Time;durP1;ratioP1;P1;durP2;ratioP2;P2;SDS_P1;SDS_P2;PMS_P1;PMS_P2;Temp;Humidity;BMP_temperature;BMP_pressure;BME280_temperature;BME280_humidity;BME280_pressure;Samples;Min_cycle;Max_cycle;Signal;HPM_P1;HPM_P2
2024/03/27 00:00:44;;;;;;;12.82;8.18;;;21.60;99.90;;;;;;5073206;28;20036;-42
2024/03/27 00:03:10;;;;;;;13.27;8.60;;;21.60;99.90;;;;;;5072058;28;20427;-41
2024/03/27 00:05:38;;;;;;;16.45;10.57;;;21.60;99.90;;;;;;5073631;28;20025;-42
2024/03/27 00:08:04;;;;;;;15.60;9.57;;;21.60;99.90;;;;;;5073176;28;20031;-43
2024/03/27 00:10:30;;;;;;;15.77;10.32;;;21.60;99.90;;;;;;5073370;28;20025;-42
2024/03/27 00:12:55;;;;;;;18.67;11.90;;;21.60;99.90;;;;;;5073375;28;20366;-42
2024/03/27 00:15:21;;;;;;;18.23;12.45;;;21.60;99.90;;;;;;5073259;28;20048;-41
2024/03/27 00:17:47;;;;;;;19.42;12.18;;;21.60;99.90;;;;;;5055011;28;20480;-42
2024/03/27 00:20:13;;;;;;;19.73;12.07;;;21.60;99.90;;;;;;5072007;28;20024;-43
2024/03/27 00:22:39;;;;;;;19.27;11.90;;;21.60;99.90;;;;;;5071498;28;20032;-43
2024/03/27 00:25:05;;;;;;;19.58;12.88;;;21.60;99.90;;;;;;5071837;28;20033;-41
2024/03/27 00:27:31;;;;;;;21.88;13.70;;;21.60;99.90;;;;;;5073174;28;20021;-41
2024/03/27 00:29:56;;;;;;;19.52;13.52;;;21.50;99.90;;;;;;5073094;28;20044;-42
2024/03/27 00:32:22;;;;;;;17.90;12.18;;;21.60;99.90;;;;;;5071582;28;20024;-42
2024/03/27 00:34:48;;;;;;;20.55;13.48;;;21.50;99.90;;;;;;5072773;28;20032;-42
2024/03/27 00:37:14;;;;;;;17.05;11.98;;;21.60;99.90;;;;;;5072976;28;20533;-42
2024/03/27 00:39:40;;;;;;;21.50;13.15;;;21.50;99.90;;;;;;5072898;28;20024;-42
2024/03/27 00:42:06;;;;;;;19.88;12.80;;;21.50;99.90;;;;;;5073042;28;20120;-42
2024/03/27 00:44:32;;;;;;;18.73;13.13;;;21.50;99.90;;;;;;5072935;28;20107;-42
2024/03/27 00:46:57;;;;;;;21.17;13.30;;;21.60;99.90;;;;;;5072819;28;20039;-42
2024/03/27 00:49:23;;;;;;;20.42;13.23;;;21.50;99.90;;;;;;5072746;28;20500;-42
2024/03/27 00:51:49;;;;;;;17.95;12.07;;;21.50;99.90;;;;;;5073486;28;20020;-40
2024/03/27 00:54:15;;;;;;;18.52;12.93;;;21.50;99.90;;;;;;5076643;28;20068;-41
2024/03/27 00:56:42;;;;;;;19.42;11.93;;;21.50;99.90;;;;;;5076672;28;20024;-43
2024/03/27 00:59:07;;;;;;;18.93;12.60;;;21.50;99.90;;;;;;5076617;28;20077;-41
2024/03/27 01:01:34;;;;;;;17.27;12.07;;;21.50;99.90;;;;;;5076345;28;20154;-40
2024/03/27 01:03:59;;;;;;;17.08;11.95;;;21.50;99.90;;;;;;5076209;28;20048;-41
2024/03/27 01:06:25;;;;;;;15.38;10.95;;;21.50;99.90;;;;;;5076676;28;20193;-41
2024/03/27 01:08:51;;;;;;;15.88;10.98;;;21.50;99.90;;;;;;5076382;28;20078;-41
2024/03/27 01:11:17;;;;;;;19.65;12.10;;;21.50;99.90;;;;;;5076302;28;20025;-41
2024/03/27 01:13:43;;;;;;;16.52;10.80;;;21.40;99.90;;;;;;5076516;28;20028;-41
2024/03/27 01:16:09;;;;;;;15.55;10.23;;;21.40;99.90;;;;;;5076305;28;20524;-40
2024/03/27 01:18:34;;;;;;;15.85;10.85;;;21.40;99.90;;;;;;5076226;28;20098;-44
2024/03/27 01:21:00;;;;;;;15.65;10.52;;;21.40;99.90;;;;;;5074626;28;20115;-41
2024/03/27 01:23:26;;;;;;;16.85;11.32;;;21.40;99.90;;;;;;5076076;28;20064;-41
2024/03/27 01:25:52;;;;;;;16.75;10.40;;;21.40;99.90;;;;;;5076116;28;20074;-41
2024/03/27 01:28:17;;;;;;;15.93;10.32;;;21.40;99.90;;;;;;5076037;28;20030;-44
2024/03/27 01:30:43;;;;;;;15.40;10.02;;;21.40;99.90;;;;;;5075927;28;20021;-41
2024/03/27 01:33:09;;;;;;;15.82;9.90;;;21.40;99.90;;;;;;5075586;28;20100;-40
2024/03/27 01:35:35;;;;;;;14.75;9.82;;;21.40;99.90;;;;;;5075695;28;20502;-42
2024/03/27 01:38:02;;;;;;;14.68;8.90;;;21.40;99.90;;;;;;5075521;28;20070;-41
2024/03/27 01:40:27;;;;;;;12.85;9.05;;;21.40;99.90;;;;;;5075751;28;20024;-42
2024/03/27 01:43:00;;;;;;;14.20;9.25;;;21.40;99.90;;;;;;5075624;28;20036;-42
2024/03/27 01:45:27;;;;;;;13.57;8.52;;;21.40;99.90;;;;;;5075665;28;20067;-43
2024/03/27 01:47:53;;;;;;;14.20;9.67;;;21.30;99.90;;;;;;5075700;28;20028;-42
2024/03/27 01:50:28;;;;;;;15.73;9.18;;;21.40;99.90;;;;;;5075438;28;20739;-42
2024/03/27 01:52:55;;;;;;;12.82;8.25;;;21.30;99.90;;;;;;5075642;28;20028;-42
2024/03/27 01:55:21;;;;;;;;;;;21.30;99.90;;;;;;5074649;28;20025;-42
2024/03/27 01:57:48;;;;;;;12.25;7.95;;;21.30;99.90;;;;;;5075562;28;19915;-43
2024/03/27 02:00:14;;;;;;;13.77;8.65;;;21.30;99.90;;;;;;5085290;23;20568;-52
2024/03/27 02:02:41;;;;;;;11.05;7.68;;;21.30;99.90;;;;;;4996699;28;20046;-51
2024/03/27 02:05:07;;;;;;;11.45;7.95;;;21.30;99.90;;;;;;4998147;28;20021;-52
2024/03/27 02:07:38;;;;;;;10.65;7.93;;;21.30;99.90;;;;;;5015540;28;20528;-52
2024/03/27 02:10:04;;;;;;;12.10;8.02;;;21.30;99.90;;;;;;5015449;28;20033;-52
2024/03/27 02:12:30;;;;;;;13.07;7.80;;;21.30;99.90;;;;;;5015470;28;20084;-52
2024/03/27 02:14:55;;;;;;;10.82;7.43;;;21.30;99.90;;;;;;5015372;28;20017;-52
2024/03/27 02:17:21;;;;;;;10.48;6.72;;;21.30;99.90;;;;;;4997748;28;20064;-52
2024/03/27 02:19:47;;;;;;;11.50;7.43;;;21.30;99.90;;;;;;5015271;28;20026;-52
2024/03/27 02:22:13;;;;;;;10.05;6.68;;;21.30;99.90;;;;;;5015199;28;20030;-52
2024/03/27 02:24:47;;;;;;;10.98;6.93;;;21.30;99.90;;;;;;5015202;28;20386;-52
2024/03/27 02:27:13;;;;;;;9.35;6.68;;;21.30;99.90;;;;;;5015178;28;20053;-52
2024/03/27 02:29:39;;;;;;;11.38;6.82;;;21.30;99.90;;;;;;5015478;28;20057;-53
2024/03/27 02:32:05;;;;;;;10.18;6.93;;;21.30;99.90;;;;;;5015298;28;20026;-53
2024/03/27 02:34:30;;;;;;;10.82;6.78;;;21.30;99.90;;;;;;4997990;28;20018;-53
2024/03/27 02:36:56;;;;;;;9.38;6.40;;;21.30;99.90;;;;;;5015142;28;20116;-52
2024/03/27 02:39:22;;;;;;;8.18;6.13;;;21.30;99.90;;;;;;5015053;28;20057;-52
2024/03/27 02:41:48;;;;;;;11.10;6.45;;;21.30;99.90;;;;;;5014858;28;20030;-53
2024/03/27 02:44:13;;;;;;;7.57;5.63;;;21.30;99.90;;;;;;5015031;28;20036;-51
2024/03/27 02:46:39;;;;;;;11.88;6.60;;;21.30;99.90;;;;;;5015022;28;20053;-52
2024/03/27 02:49:05;;;;;;;8.65;5.70;;;21.30;99.90;;;;;;5014995;28;20466;-51
2024/03/27 02:51:31;;;;;;;11.50;6.78;;;21.30;99.90;;;;;;5014698;28;20052;-51
2024/03/27 02:53:56;;;;;;;8.50;5.65;;;21.30;99.90;;;;;;5014597;28;20490;-51
2024/03/27 02:56:22;;;;;;;8.50;5.60;;;21.30;99.90;;;;;;5014442;28;20026;-52
2024/03/27 02:58:48;;;;;;;8.43;5.18;;;21.20;99.90;;;;;;5014762;28;20056;-52
2024/03/27 03:01:14;;;;;;;8.50;5.78;;;21.20;99.90;;;;;;5014884;28;20513;-51
2024/03/27 03:03:40;;;;;;;9.13;5.63;;;21.30;99.90;;;;;;5014652;28;20034;-52
2024/03/27 03:06:06;;;;;;;6.75;4.60;;;21.20;99.90;;;;;;5014738;28;20072;-50
2024/03/27 03:08:31;;;;;;;9.20;5.40;;;21.20;99.90;;;;;;5014367;28;20034;-51
2024/03/27 03:10:57;;;;;;;6.40;5.25;;;21.30;99.90;;;;;;5014506;28;20025;-50
2024/03/27 03:13:23;;;;;;;6.90;5.28;;;21.30;99.90;;;;;;5014441;28;20029;-50
2024/03/27 03:15:49;;;;;;;7.63;4.80;;;21.30;99.90;;;;;;5014282;28;20543;-50
2024/03/27 03:18:15;;;;;;;7.10;4.65;;;21.30;99.90;;;;;;5014261;28;20107;-50
2024/03/27 03:20:41;;;;;;;6.28;4.18;;;21.20;99.90;;;;;;4996949;28;20466;-50
2024/03/27 03:23:06;;;;;;;7.88;5.07;;;21.20;99.90;;;;;;5014220;28;20022;-52
2024/03/27 03:25:32;;;;;;;6.85;4.72;;;21.20;99.90;;;;;;5014136;28;20509;-53
2024/03/27 03:27:58;;;;;;;7.80;4.63;;;21.20;99.90;;;;;;5014500;28;20053;-52
2024/03/27 03:30:24;;;;;;;7.13;4.40;;;21.30;99.90;;;;;;5014576;28;20382;-53
2024/03/27 03:32:50;;;;;;;6.55;4.30;;;21.20;99.90;;;;;;5014080;28;20026;-53
2024/03/27 03:35:16;;;;;;;6.57;4.00;;;21.20;99.90;;;;;;5014025;28;20044;-52
2024/03/27 03:37:41;;;;;;;7.15;4.07;;;21.20;99.90;;;;;;4996410;28;20529;-53
2024/03/27 03:40:08;;;;;;;6.65;4.07;;;21.20;99.90;;;;;;5014005;28;20108;-52
2024/03/27 03:42:34;;;;;;;7.50;5.20;;;21.20;99.90;;;;;;5014128;28;20029;-52
2024/03/27 03:45:01;;;;;;;5.60;4.47;;;21.20;99.90;;;;;;5014084;28;20053;-53
2024/03/27 03:47:27;;;;;;;5.38;3.67;;;21.20;99.90;;;;;;4996190;28;20083;-53
2024/03/27 03:49:53;;;;;;;5.13;3.42;;;21.20;99.90;;;;;;5013795;28;20494;-53
2024/03/27 03:52:19;;;;;;;6.97;4.40;;;21.20;99.90;;;;;;5013840;28;20026;-54
2024/03/27 03:54:44;;;;;;;6.50;4.00;;;21.20;99.90;;;;;;5013683;28;20382;-53
2024/03/27 03:57:10;;;;;;;6.47;4.07;;;21.20;99.90;;;;;;5013760;28;20168;-52
2024/03/27 03:59:36;;;;;;;6.40;4.00;;;21.20;99.90;;;;;;4979869;28;20018;-52
2024/03/27 04:02:02;;;;;;;6.20;4.00;;;21.20;99.90;;;;;;5014041;28;20062;-52
2024/03/27 04:04:27;;;;;;;5.68;3.60;;;21.20;99.90;;;;;;5013765;28;20092;-52
2024/03/27 04:06:53;;;;;;;5.68;4.20;;;21.20;99.90;;;;;;4995907;28;20029;-52
2024/03/27 04:09:19;;;;;;;6.50;3.60;;;21.20;99.90;;;;;;5013384;28;20081;-52
2024/03/27 04:11:45;;;;;;;7.13;4.43;;;21.20;99.90;;;;;;5013461;28;20030;-52
2024/03/27 04:14:11;;;;;;;4.20;3.28;;;21.20;99.90;;;;;;5013422;28;20029;-52
2024/03/27 04:16:37;;;;;;;6.45;3.88;;;21.20;99.90;;;;;;5013294;28;20026;-52
2024/03/27 04:19:03;;;;;;;6.88;3.53;;;21.20;99.90;;;;;;4995800;28;20026;-53
2024/03/27 04:21:28;;;;;;;5.50;3.50;;;21.10;99.90;;;;;;5013296;28;20044;-53
2024/03/27 04:23:54;;;;;;;6.47;4.03;;;21.10;99.90;;;;;;5013373;28;20022;-53
2024/03/27 04:26:20;;;;;;;5.40;3.13;;;21.10;99.90;;;;;;5016251;28;20087;-52
2024/03/27 04:28:46;;;;;;;6.03;3.15;;;21.20;99.90;;;;;;5020047;28;20030;-53
2024/03/27 04:31:11;;;;;;;5.30;3.75;;;21.10;99.90;;;;;;5019834;28;20466;-53
2024/03/27 04:33:37;;;;;;;5.00;3.45;;;21.20;99.90;;;;;;5019932;28;20026;-52
2024/03/27 04:36:03;;;;;;;5.45;3.70;;;21.10;99.90;;;;;;5020046;28;20018;-53
2024/03/27 04:38:29;;;;;;;4.95;3.35;;;21.20;99.90;;;;;;5019651;28;20088;-52
2024/03/27 04:40:56;;;;;;;4.85;3.30;;;21.10;99.90;;;;;;5019627;28;20033;-52
2024/03/27 04:43:22;;;;;;;4.63;3.08;;;21.10;99.90;;;;;;5019846;28;20034;-53
2024/03/27 04:45:48;;;;;;;4.97;2.88;;;21.10;99.90;;;;;;5019679;28;20081;-52
2024/03/27 04:48:14;;;;;;;3.67;2.97;;;21.10;99.90;;;;;;5002000;28;20474;-52
2024/03/27 04:50:40;;;;;;;4.00;3.00;;;21.10;99.90;;;;;;5019566;28;20030;-53
2024/03/27 04:53:05;;;;;;;5.25;3.13;;;21.10;99.90;;;;;;5013894;28;20034;-52
2024/03/27 04:55:31;;;;;;;4.72;3.30;;;21.10;99.90;;;;;;4998664;28;20034;-53
2024/03/27 04:57:57;;;;;;;4.85;2.88;;;21.10;99.90;;;;;;4998517;28;20398;-52
2024/03/27 05:00:23;;;;;;;4.47;2.85;;;21.10;99.90;;;;;;4998560;28;20037;-52
2024/03/27 05:02:49;;;;;;;4.10;3.08;;;21.10;99.90;;;;;;4998265;28;20035;-52
2024/03/27 05:05:15;;;;;;;5.25;2.53;;;21.10;99.90;;;;;;4999954;28;20057;-53
2024/03/27 05:07:41;;;;;;;5.82;3.33;;;21.10;99.90;;;;;;4999881;28;20033;-53
2024/03/27 05:10:07;;;;;;;4.75;2.92;;;21.10;99.90;;;;;;5000150;28;20467;-52
2024/03/27 05:12:33;;;;;;;4.63;3.03;;;21.10;99.90;;;;;;4982383;28;20022;-52
2024/03/27 05:14:59;;;;;;;3.13;2.40;;;21.10;99.90;;;;;;4982331;28;20158;-52
2024/03/27 05:17:25;;;;;;;5.05;2.80;;;21.10;99.90;;;;;;4999859;28;20105;-53
2024/03/27 05:19:51;;;;;;;4.20;2.58;;;21.10;99.90;;;;;;4999696;28;20054;-54
2024/03/27 05:22:16;;;;;;;4.22;2.80;;;21.10;99.90;;;;;;4999702;28;20041;-52
2024/03/27 05:24:43;;;;;;;4.75;3.13;;;21.00;99.90;;;;;;4982690;28;20068;-52
2024/03/27 05:27:09;;;;;;;6.07;3.17;;;21.00;99.90;;;;;;5000135;28;20049;-52
2024/03/27 05:29:35;;;;;;;3.88;2.90;;;21.00;99.90;;;;;;4998518;28;20073;-53
2024/03/27 05:32:01;;;;;;;3.35;2.58;;;21.00;99.90;;;;;;4999809;28;20030;-53
2024/03/27 05:34:27;;;;;;;3.55;2.63;;;21.00;99.90;;;;;;4999732;28;20379;-53
2024/03/27 05:36:53;;;;;;;5.03;2.63;;;21.00;99.90;;;;;;4999087;28;20034;-52
2024/03/27 05:39:19;;;;;;;4.47;2.53;;;21.00;99.90;;;;;;4978308;28;20053;-52
2024/03/27 05:41:45;;;;;;;3.70;2.38;;;21.00;99.90;;;;;;4996534;28;20034;-53
2024/03/27 05:44:12;;;;;;;3.55;2.42;;;21.00;99.90;;;;;;4996808;28;20044;-52
2024/03/27 05:46:39;;;;;;;4.70;2.73;;;21.00;99.90;;;;;;4996518;28;20073;-52
2024/03/27 05:49:06;;;;;;;4.97;2.25;;;21.00;99.90;;;;;;4996499;28;20252;-52
2024/03/27 05:51:33;;;;;;;6.22;2.88;;;21.00;99.90;;;;;;4979050;28;20109;-52
2024/03/27 05:54:00;;;;;;;4.22;2.53;;;21.00;99.90;;;;;;4996356;28;20026;-51
2024/03/27 05:56:26;;;;;;;3.47;2.65;;;21.00;99.90;;;;;;4996335;28;20029;-52
2024/03/27 05:58:52;;;;;;;4.72;2.38;;;21.00;99.90;;;;;;4996095;28;20112;-52
2024/03/27 06:01:19;;;;;;;3.70;2.42;;;21.00;99.90;;;;;;4978472;28;20480;-52
2024/03/27 06:03:52;;;;;;;4.70;2.90;;;21.00;99.90;;;;;;4996250;28;20080;-52
2024/03/27 06:06:19;;;;;;;4.20;2.15;;;21.00;99.90;;;;;;4996039;28;20037;-52
2024/03/27 06:08:47;;;;;;;4.30;2.05;;;21.00;99.90;;;;;;4994857;28;20557;-52
2024/03/27 06:11:13;;;;;;;4.18;2.20;;;21.00;99.90;;;;;;4996054;28;20037;-53
2024/03/27 06:13:39;;;;;;;4.90;2.22;;;21.00;99.90;;;;;;4996003;28;20015;-54
2024/03/27 06:16:05;;;;;;;3.47;2.00;;;21.00;99.90;;;;;;4978519;28;20038;-51
2024/03/27 06:18:31;;;;;;;6.00;2.63;;;21.00;99.90;;;;;;4994576;28;20386;-52
2024/03/27 06:20:57;;;;;;;5.22;2.30;;;21.00;99.90;;;;;;4995976;28;20022;-52
2024/03/27 06:23:23;;;;;;;4.65;2.17;;;21.00;99.90;;;;;;4995650;28;20512;-53
2024/03/27 06:25:59;;;;;;;7.80;2.95;;;21.00;99.90;;;;;;4995857;28;20499;-53
2024/03/27 06:28:25;;;;;;;4.30;2.50;;;21.00;99.90;;;;;;4995776;28;20030;-53
2024/03/27 06:30:58;;;;;;;5.03;1.98;;;21.00;99.90;;;;;;4995837;28;20022;-52
2024/03/27 06:33:25;;;;;;;5.68;2.15;;;20.90;99.90;;;;;;4978207;28;20117;-52
2024/03/27 06:35:51;;;;;;;3.50;2.17;;;21.00;99.90;;;;;;4995572;28;20102;-50
2024/03/27 06:38:22;;;;;;;10.88;2.72;;;21.00;99.90;;;;;;4995613;28;20030;-51
2024/03/27 06:40:48;;;;;;;10.23;2.90;;;21.00;99.90;;;;;;4985326;28;20019;-51
2024/03/27 06:43:14;;;;;;;5.70;2.65;;;21.00;99.90;;;;;;5013504;28;20050;-52
2024/03/27 06:45:43;;;;;;;5.22;2.30;;;21.00;99.90;;;;;;5013280;28;20034;-53
2024/03/27 06:48:10;;;;;;;4.82;2.53;;;21.00;99.90;;;;;;5011536;28;20343;-52
2024/03/27 06:50:36;;;;;;;9.70;2.63;;;21.00;99.90;;;;;;5008743;28;20072;-52
2024/03/27 06:53:02;;;;;;;4.88;2.70;;;21.00;99.90;;;;;;5010252;28;20014;-52
2024/03/27 06:55:28;;;;;;;7.40;2.30;;;21.00;99.90;;;;;;5011293;28;20041;-52
2024/03/27 06:57:53;;;;;;;5.97;2.58;;;21.00;99.90;;;;;;5010007;28;20025;-52
2024/03/27 07:00:20;;;;;;;5.93;2.20;;;21.00;99.90;;;;;;5012101;28;20025;-51
2024/03/27 07:02:46;;;;;;;4.60;1.80;;;21.10;99.90;;;;;;4979774;28;20080;-53
2024/03/27 07:05:13;;;;;;;6.00;2.10;;;21.10;99.90;;;;;;5008562;28;20014;-52
2024/03/27 07:07:40;;;;;;;7.50;2.70;;;21.10;99.90;;;;;;4995736;28;20471;-52
2024/03/27 07:10:08;;;;;;;8.77;2.80;;;21.10;99.90;;;;;;5004618;28;20050;-51
2024/03/27 07:12:34;;;;;;;9.45;3.03;;;21.10;99.90;;;;;;5006641;28;20436;-51
2024/03/27 07:15:00;;;;;;;7.90;2.38;;;21.10;99.90;;;;;;5006490;28;20036;-52
2024/03/27 07:17:26;;;;;;;6.05;2.45;;;21.10;99.90;;;;;;4994874;28;20370;-51
2024/03/27 07:19:52;;;;;;;6.47;2.35;;;21.10;99.90;;;;;;5011370;28;20064;-52
2024/03/27 07:22:18;;;;;;;8.00;2.78;;;21.10;99.90;;;;;;4991123;28;20029;-51
2024/03/27 07:24:44;;;;;;;6.75;2.47;;;21.10;99.90;;;;;;5009287;28;20412;-51
2024/03/27 07:27:10;;;;;;;11.68;2.55;;;21.10;99.90;;;;;;5004579;28;20141;-51
2024/03/27 07:29:36;;;;;;;9.68;2.75;;;21.10;99.90;;;;;;5007299;28;20018;-51
2024/03/27 07:32:02;;;;;;;6.80;2.78;;;21.10;99.90;;;;;;4999686;28;20483;-59
2024/03/27 07:34:28;;;;;;;11.85;2.53;;;21.10;99.90;;;;;;4999666;28;20095;-52
2024/03/27 07:36:54;;;;;;;8.30;2.72;;;21.10;99.90;;;;;;4998782;28;20518;-52
2024/03/27 07:39:20;;;;;;;7.97;2.42;;;21.10;99.90;;;;;;5000707;28;20022;-52
2024/03/27 07:41:46;;;;;;;13.93;2.72;;;21.10;99.90;;;;;;4996199;28;20165;-52
2024/03/27 07:44:12;;;;;;;10.30;3.03;;;21.10;99.90;;;;;;4996280;28;20430;-51
2024/03/27 07:46:38;;;;;;;9.10;3.22;;;21.20;99.90;;;;;;4994204;28;20029;-51
2024/03/27 07:49:05;;;;;;;4.20;2.33;;;21.10;99.90;;;;;;5007710;28;20044;-51
2024/03/27 07:51:31;;;;;;;7.67;2.80;;;21.10;99.90;;;;;;5011519;28;20018;-51
2024/03/27 07:53:57;;;;;;;9.15;2.92;;;21.10;99.90;;;;;;5010596;28;20106;-51
2024/03/27 07:56:26;;;;;;;5.65;2.38;;;21.10;99.90;;;;;;5007328;28;20089;-50
2024/03/27 07:58:53;;;;;;;6.50;2.83;;;21.20;99.90;;;;;;5011989;28;20045;-51
2024/03/27 08:01:19;;;;;;;7.15;2.80;;;21.10;99.90;;;;;;5003069;28;20042;-52
2024/03/27 08:03:45;;;;;;;4.90;2.85;;;21.10;99.90;;;;;;5002079;28;20545;-51
2024/03/27 08:06:14;;;;;;;7.40;3.00;;;21.20;99.90;;;;;;4997255;28;20030;-52
2024/03/27 08:08:41;;;;;;;7.50;2.70;;;21.20;99.90;;;;;;5001959;28;20057;-52
2024/03/27 08:11:06;;;;;;;8.57;2.88;;;21.20;99.90;;;;;;5013491;28;20144;-52
2024/03/27 08:13:32;;;;;;;7.43;3.13;;;21.20;99.90;;;;;;5013158;28;20061;-52
2024/03/27 08:16:03;;;;;;;6.93;2.33;;;21.10;99.90;;;;;;5013189;28;20544;-52
2024/03/27 08:18:43;;;;;;;4.45;2.80;;;21.20;99.90;;;;;;5013040;28;20032;-50
2024/03/27 08:21:10;;;;;;;4.93;2.60;;;21.20;99.90;;;;;;4995476;28;20034;-51
2024/03/27 08:23:36;;;;;;;7.18;3.22;;;21.20;99.90;;;;;;5013189;28;20014;-51
2024/03/27 08:26:02;;;;;;;5.10;2.25;;;21.10;99.90;;;;;;5013177;28;20118;-51
2024/03/27 08:28:28;;;;;;;7.32;2.63;;;21.20;99.90;;;;;;5013478;28;20033;-51
2024/03/27 08:30:55;;;;;;;7.45;2.60;;;21.20;99.90;;;;;;5013001;28;20103;-52
2024/03/27 08:33:21;;;;;;;7.43;2.80;;;21.20;99.90;;;;;;5012502;28;20474;-52
2024/03/27 08:35:53;;;;;;;6.90;2.70;;;21.20;99.90;;;;;;5011110;28;20022;-51
2024/03/27 08:38:19;;;;;;;6.97;2.88;;;21.20;99.90;;;;;;4994300;28;20490;-52
2024/03/27 08:40:51;;;;;;;5.63;2.60;;;21.20;99.90;;;;;;4998635;28;20061;-51
2024/03/27 08:43:18;;;;;;;10.50;3.28;;;21.20;99.90;;;;;;4992204;28;20509;-52
2024/03/27 08:45:44;;;;;;;6.43;3.45;;;21.20;99.90;;;;;;4992382;28;20052;-52
2024/03/27 08:48:10;;;;;;;9.27;3.58;;;21.20;99.90;;;;;;4993650;28;20109;-51
2024/03/27 08:50:38;;;;;;;7.05;2.70;;;21.20;99.90;;;;;;4991604;28;20455;-51
2024/03/27 08:53:03;;;;;;;11.35;3.30;;;21.20;99.90;;;;;;4992608;28;20026;-52
2024/03/27 08:55:30;;;;;;;7.78;3.10;;;21.10;99.90;;;;;;4975129;28;20023;-51
2024/03/27 08:57:56;;;;;;;6.20;3.03;;;21.20;99.90;;;;;;4993642;28;20033;-51
2024/03/27 09:00:22;;;;;;;7.13;3.38;;;21.20;99.90;;;;;;4993508;28;20474;-51
2024/03/27 09:02:48;;;;;;;6.28;2.60;;;21.20;99.90;;;;;;4993519;28;20058;-52
2024/03/27 09:05:17;;;;;;;9.15;3.47;;;21.20;99.90;;;;;;4993468;28;20022;-52
2024/03/27 09:07:43;;;;;;;7.03;2.97;;;21.20;99.90;;;;;;4993497;28;20022;-52
2024/03/27 09:10:10;;;;;;;9.13;3.45;;;21.20;99.90;;;;;;4993445;28;20061;-52
2024/03/27 09:12:36;;;;;;;5.78;2.90;;;21.20;99.90;;;;;;4995000;28;20479;-52
2024/03/27 09:15:02;;;;;;;7.43;3.05;;;21.20;99.90;;;;;;4997194;28;20062;-52
2024/03/27 09:17:28;;;;;;;6.85;2.97;;;21.20;99.90;;;;;;4996976;28;20026;-51
2024/03/27 09:19:54;;;;;;;6.43;2.88;;;21.20;99.90;;;;;;4996730;28;20495;-52
2024/03/27 09:22:19;;;;;;;7.15;2.88;;;21.20;99.90;;;;;;4979150;28;20069;-52
2024/03/27 09:24:45;;;;;;;7.85;2.90;;;21.10;99.90;;;;;;4997061;28;20061;-52
2024/03/27 09:27:11;;;;;;;7.65;3.25;;;21.10;99.90;;;;;;4996828;28;20553;-53
2024/03/27 09:29:37;;;;;;;8.48;2.78;;;21.10;99.90;;;;;;4996728;28;20352;-52
2024/03/27 09:32:03;;;;;;;9.32;3.10;;;21.10;99.90;;;;;;4996560;28;20026;-52
2024/03/27 09:34:30;;;;;;;8.20;3.33;;;21.10;99.90;;;;;;4996471;28;20029;-51
2024/03/27 09:36:56;;;;;;;5.70;3.28;;;21.20;99.90;;;;;;4979130;28;20049;-52
2024/03/27 09:39:23;;;;;;;7.53;3.47;;;21.20;99.90;;;;;;4996546;28;20076;-52
2024/03/27 09:41:49;;;;;;;7.45;3.28;;;21.20;99.90;;;;;;4996619;28;20387;-52
2024/03/27 09:44:17;;;;;;;7.45;3.28;;;21.20;99.90;;;;;;4996358;28;20030;-52
2024/03/27 09:46:42;;;;;;;;;;;21.20;99.90;;;;;;4996786;28;20022;-52
2024/03/27 09:49:10;;;;;;;7.28;2.85;;;21.30;99.90;;;;;;4996316;28;19996;-52
2024/03/27 09:51:40;;;;;;;9.32;3.53;;;21.30;99.90;;;;;;4996287;28;20034;-51
2024/03/27 09:54:06;;;;;;;6.70;3.35;;;21.30;99.90;;;;;;4996254;28;20049;-52
2024/03/27 09:56:36;;;;;;;6.13;3.60;;;21.30;99.90;;;;;;4996284;28;20551;-52
2024/03/27 09:59:02;;;;;;;4.85;3.20;;;21.30;99.90;;;;;;4978619;28;20022;-51
2024/03/27 10:01:31;;;;;;;6.85;3.47;;;21.30;99.90;;;;;;4995922;28;20050;-52
2024/03/27 10:03:59;;;;;;;6.63;3.70;;;21.30;99.90;;;;;;4996115;28;20023;-52
2024/03/27 10:06:25;;;;;;;8.52;3.38;;;21.30;99.90;;;;;;4996094;28;20026;-51
2024/03/27 10:08:51;;;;;;;8.70;3.80;;;21.40;99.90;;;;;;4996096;28;20022;-51
2024/03/27 10:11:17;;;;;;;6.18;3.47;;;21.40;99.90;;;;;;4995894;28;20080;-51
2024/03/27 10:13:43;;;;;;;6.97;4.18;;;21.40;99.90;;;;;;4978998;28;20034;-52
2024/03/27 10:16:10;;;;;;;6.68;3.53;;;21.40;99.90;;;;;;4995810;28;20030;-52
2024/03/27 10:18:39;;;;;;;6.40;3.40;;;21.40;99.90;;;;;;4995896;28;20502;-51
2024/03/27 10:21:05;;;;;;;8.23;4.00;;;21.40;99.90;;;;;;4995632;28;20030;-51
2024/03/27 10:23:31;;;;;;;11.63;6.25;;;21.50;99.90;;;;;;4995166;28;20039;-51
2024/03/27 10:26:03;;;;;;;11.20;5.32;;;21.40;99.90;;;;;;4995909;28;20101;-52
2024/03/27 10:28:35;;;;;;;10.30;5.60;;;21.50;99.90;;;;;;4995705;28;20530;-51
2024/03/27 10:31:04;;;;;;;9.52;5.47;;;21.40;99.90;;;;;;4995734;28;20109;-51
2024/03/27 10:33:30;;;;;;;11.70;6.78;;;21.40;99.90;;;;;;4995661;28;20370;-50
2024/03/27 10:35:58;;;;;;;13.05;6.75;;;21.40;99.90;;;;;;4995547;28;20022;-51
2024/03/27 10:38:28;;;;;;;12.55;6.65;;;21.40;99.90;;;;;;4995468;28;20026;-51
2024/03/27 10:40:58;;;;;;;12.52;6.32;;;21.40;99.90;;;;;;4995482;28;20030;-51
2024/03/27 10:43:34;;;;;;;14.77;6.50;;;21.40;99.90;;;;;;4995296;28;20030;-52
2024/03/27 10:46:02;;;;;;;12.25;6.60;;;21.50;99.90;;;;;;4995353;28;20022;-52
2024/03/27 10:48:29;;;;;;;14.43;7.00;;;21.50;99.90;;;;;;4995333;28;20513;-51
2024/03/27 10:50:57;;;;;;;11.27;6.93;;;21.50;99.90;;;;;;4995095;28;20026;-51
2024/03/27 10:53:24;;;;;;;11.88;6.88;;;21.50;99.90;;;;;;4977613;28;20034;-51
2024/03/27 10:55:50;;;;;;;12.85;7.05;;;21.50;99.90;;;;;;4995252;28;20027;-51
2024/03/27 10:58:16;;;;;;;11.60;6.57;;;21.50;99.90;;;;;;4994899;28;20038;-51
2024/03/27 11:00:42;;;;;;;13.50;6.95;;;21.50;99.90;;;;;;4994848;28;20046;-52
2024/03/27 11:03:09;;;;;;;10.95;7.03;;;21.50;99.90;;;;;;4977275;28;20046;-52
2024/03/27 11:05:35;;;;;;;11.10;6.68;;;21.50;99.90;;;;;;4994984;28;20057;-51
2024/03/27 11:08:04;;;;;;;14.60;7.18;;;21.50;99.90;;;;;;4994867;28;20471;-52
2024/03/27 11:10:30;;;;;;;12.50;6.45;;;21.50;99.90;;;;;;4994965;28;20027;-52
2024/03/27 11:12:59;;;;;;;12.07;6.47;;;21.60;99.90;;;;;;4994738;28;20101;-51
2024/03/27 11:15:26;;;;;;;15.52;6.63;;;21.50;99.90;;;;;;4994635;28;20054;-51
2024/03/27 11:17:57;;;;;;;10.52;6.20;;;21.60;99.90;;;;;;4976969;28;20476;-52
2024/03/27 11:20:26;;;;;;;10.85;6.25;;;21.60;99.90;;;;;;4994518;28;20034;-51
2024/03/27 11:22:56;;;;;;;12.48;6.53;;;21.60;99.90;;;;;;4994384;28;20038;-51
2024/03/27 11:25:26;;;;;;;10.68;6.20;;;21.60;99.90;;;;;;4994390;28;20098;-52
2024/03/27 11:27:52;;;;;;;10.82;6.10;;;21.60;99.90;;;;;;4994390;28;20034;-51
2024/03/27 11:30:21;;;;;;;8.25;5.28;;;21.60;99.90;;;;;;4976999;28;20029;-51
2024/03/27 11:32:49;;;;;;;10.88;5.32;;;21.60;99.90;;;;;;4994342;28;20023;-52
2024/03/27 11:35:16;;;;;;;11.63;5.43;;;21.60;99.90;;;;;;4993495;28;20365;-51
2024/03/27 11:37:42;;;;;;;10.37;5.30;;;21.50;99.90;;;;;;4993926;28;20035;-51
2024/03/27 11:40:09;;;;;;;9.57;4.70;;;21.50;99.90;;;;;;4994163;28;20395;-52
2024/03/27 11:42:38;;;;;;;8.20;5.03;;;21.50;99.90;;;;;;4976906;28;20031;-52
2024/03/27 11:45:05;;;;;;;10.77;5.10;;;21.60;99.90;;;;;;4994493;28;20554;-51
2024/03/27 11:47:31;;;;;;;13.88;5.40;;;21.60;99.90;;;;;;4994215;28;20214;-52
2024/03/27 11:49:57;;;;;;;9.63;5.07;;;21.60;99.90;;;;;;4994284;28;20030;-51
2024/03/27 11:52:25;;;;;;;9.82;4.60;;;21.60;99.90;;;;;;4994125;28;20029;-52
2024/03/27 11:54:57;;;;;;;10.77;5.10;;;21.60;99.90;;;;;;4993934;28;20030;-52
2024/03/27 11:57:22;;;;;;;9.52;5.15;;;21.60;99.90;;;;;;4994186;28;20109;-52
2024/03/27 11:59:51;;;;;;;8.35;3.95;;;21.70;99.90;;;;;;4993887;28;20468;-52
2024/03/27 12:02:17;;;;;;;9.73;4.80;;;21.70;99.90;;;;;;4976101;28;20125;-51
2024/03/27 12:04:43;;;;;;;8.75;4.40;;;21.70;99.90;;;;;;4994256;28;20101;-52
2024/03/27 12:07:09;;;;;;;9.18;4.25;;;21.70;99.90;;;;;;4992877;28;20023;-51
2024/03/27 12:09:38;;;;;;;7.70;3.90;;;21.70;99.90;;;;;;4994000;28;20023;-51
2024/03/27 12:12:05;;;;;;;12.05;4.13;;;21.70;99.90;;;;;;4993873;28;20034;-52
2024/03/27 12:14:32;;;;;;;7.15;3.40;;;21.80;99.90;;;;;;4993956;28;20058;-52
2024/03/27 12:17:18;;;;;;;10.77;4.78;;;21.80;99.90;;;;;;4993562;28;20026;-51
2024/03/27 12:19:56;;;;;;;8.40;4.10;;;21.80;99.90;;;;;;4993179;28;20402;-52
2024/03/27 12:22:22;;;;;;;9.35;3.85;;;21.80;99.90;;;;;;4993683;28;20390;-52
2024/03/27 12:24:50;;;;;;;11.65;4.38;;;21.90;99.90;;;;;;4976051;28;20463;-51
2024/03/27 12:27:28;;;;;;;7.00;4.10;;;21.80;99.90;;;;;;4993492;28;20121;-51
2024/03/27 12:29:54;;;;;;;7.10;3.30;;;21.90;99.90;;;;;;4993481;28;20027;-52
2024/03/27 12:32:20;;;;;;;6.40;4.32;;;21.90;99.90;;;;;;4993475;28;20042;-52
2024/03/27 12:34:47;;;;;;;7.50;3.75;;;21.90;99.90;;;;;;4992597;28;20032;-52
2024/03/27 12:37:14;;;;;;;6.88;3.55;;;22.00;99.90;;;;;;4993763;28;20037;-52
2024/03/27 12:39:41;;;;;;;7.55;4.07;;;22.00;99.90;;;;;;4993652;28;20705;-52